createdAt,value
2017-11-09T04:44:15.732Z,25.43
2017-11-09T04:46:42.516Z,28.63
2017-11-09T04:49:09.319Z,24.30
2017-11-09T04:51:36.158Z,26.60
2017-11-09T04:54:02.982Z,27.33
2017-11-09T04:56:29.799Z,26.07
2017-11-09T04:58:56.627Z,25.70
2017-11-09T05:01:23.789Z,27.27
2017-11-09T05:03:50.579Z,27.37
2017-11-09T05:06:17.422Z,26.17
2017-11-09T05:08:44.222Z,25.70
2017-11-09T05:11:11.006Z,29.03
2017-11-09T05:13:37.844Z,24.87
2017-11-09T05:16:04.673Z,26.60
2017-11-09T05:18:31.489Z,28.27
2017-11-09T05:20:58.328Z,29.50
2017-11-09T05:23:25.162Z,27.17
2017-11-09T05:25:52.004Z,26.83
2017-11-09T05:28:18.894Z,27.10
2017-11-09T05:30:45.742Z,28.00
2017-11-09T05:33:12.892Z,27.20
2017-11-09T05:35:39.801Z,27.50
2017-11-09T05:38:06.619Z,26.63
2017-11-09T05:40:33.449Z,27.33
2017-11-09T05:43:00.296Z,28.50
2017-11-09T05:45:27.134Z,26.23
2017-11-09T05:47:53.948Z,29.13
2017-11-09T05:50:20.814Z,25.77
2017-11-09T05:52:47.687Z,24.73
2017-11-09T05:55:14.516Z,25.00
2017-11-09T05:57:41.344Z,26.03
2017-11-09T06:00:08.197Z,24.10
2017-11-09T06:02:35.026Z,23.87
2017-11-09T06:05:01.850Z,26.20
2017-11-09T06:07:28.703Z,24.73
2017-11-09T06:09:55.553Z,29.13
2017-11-09T06:12:22.386Z,27.77
2017-11-09T06:14:49.229Z,27.03
2017-11-09T06:17:16.035Z,27.00
2017-11-09T06:19:42.878Z,29.57
2017-11-09T06:22:09.705Z,26.53
2017-11-09T06:24:36.516Z,28.47
2017-11-09T06:27:03.341Z,26.80
2017-11-09T06:29:30.390Z,27.90
2017-11-09T06:31:57.236Z,26.53
2017-11-09T06:34:24.080Z,25.30
2017-11-09T06:36:50.909Z,28.70
2017-11-09T06:39:17.764Z,26.10
2017-11-09T06:41:44.621Z,27.10
2017-11-09T06:44:11.407Z,28.20
2017-11-09T06:46:38.215Z,26.10
2017-11-09T06:49:05.068Z,25.13
2017-11-09T06:51:31.876Z,25.50
2017-11-09T06:53:58.684Z,27.40
2017-11-09T06:56:25.523Z,30.87
2017-11-09T06:58:52.347Z,29.80
2017-11-09T07:01:19.139Z,28.23
2017-11-09T07:03:46.005Z,28.23
2017-11-09T07:06:12.883Z,28.93
2017-11-09T07:08:39.669Z,30.63
2017-11-09T07:11:06.575Z,29.07
2017-11-09T07:13:33.387Z,27.50
2017-11-09T07:16:00.215Z,30.07
2017-11-09T07:18:27.028Z,28.10
2017-11-09T07:20:53.844Z,27.23
2017-11-09T07:23:20.672Z,32.03
2017-11-09T07:25:47.518Z,30.13
2017-11-09T07:28:14.358Z,29.07
2017-11-09T07:30:41.159Z,27.37
2017-11-09T07:33:08.038Z,28.17
2017-11-09T07:35:34.843Z,29.90
2017-11-09T07:38:01.686Z,29.07
2017-11-09T07:40:28.510Z,28.47
2017-11-09T07:42:55.307Z,30.57
2017-11-09T07:45:22.129Z,31.10
2017-11-09T07:47:48.938Z,28.60
2017-11-09T07:50:16.002Z,27.97
2017-11-09T07:52:42.813Z,27.03
2017-11-09T07:55:10.588Z,28.87
2017-11-09T07:57:37.408Z,30.83
2017-11-09T08:00:04.213Z,26.60
2017-11-09T08:02:31.093Z,30.03
2017-11-09T08:04:57.938Z,28.47
2017-11-09T08:07:24.897Z,29.33
2017-11-09T08:09:51.733Z,37.97
2017-11-09T08:12:18.626Z,28.33
2017-11-09T08:14:45.438Z,30.73
2017-11-09T08:17:12.304Z,28.50
2017-11-09T08:19:39.150Z,27.57
2017-11-09T08:22:06.005Z,28.87
2017-11-09T08:24:35.485Z,29.10
2017-11-09T08:27:02.642Z,33.70
2017-11-09T08:29:29.754Z,27.93
2017-11-09T08:31:57.354Z,28.90
2017-11-09T08:34:24.205Z,27.50
2017-11-09T08:36:50.997Z,29.57
2017-11-09T08:39:18.108Z,30.43
2017-11-09T08:41:44.927Z,28.37
2017-11-09T08:44:11.725Z,26.93
2017-11-09T08:46:38.575Z,30.03
2017-11-09T08:49:05.405Z,29.23
2017-11-09T08:51:32.265Z,30.70
2017-11-09T08:53:59.062Z,27.20
2017-11-09T08:56:25.885Z,26.60
2017-11-09T08:58:52.729Z,30.20
2017-11-09T09:01:19.588Z,29.73
2017-11-09T09:03:46.428Z,27.40
2017-11-09T09:06:13.265Z,26.10
2017-11-09T09:08:40.126Z,27.03
2017-11-09T09:11:07.003Z,29.60
2017-11-09T09:13:33.853Z,30.43
2017-11-09T09:16:00.748Z,29.20
2017-11-09T09:18:27.590Z,26.87
2017-11-09T09:21:13.071Z,28.03
2017-11-09T09:23:39.928Z,24.93
2017-11-09T09:26:13.365Z,29.20
2017-11-09T09:28:43.175Z,27.57
2017-11-09T09:31:10.042Z,31.27
2017-11-09T09:33:38.014Z,30.33
2017-11-09T09:36:21.468Z,28.20
2017-11-09T09:38:52.248Z,29.00
2017-11-09T09:41:19.144Z,29.90
2017-11-09T09:43:45.981Z,26.27
2017-11-09T09:46:12.860Z,29.33
2017-11-09T09:48:39.702Z,21.60
2017-11-09T09:51:06.617Z,28.73
2017-11-09T09:53:33.515Z,26.03
2017-11-09T09:56:00.293Z,28.87
2017-11-09T09:58:27.110Z,30.63
2017-11-09T10:00:53.981Z,24.10
2017-11-09T10:03:21.126Z,31.33
2017-11-09T10:05:47.974Z,27.17
2017-11-09T10:08:14.853Z,27.67
2017-11-09T10:10:41.658Z,26.77
2017-11-09T10:13:08.466Z,27.90
2017-11-09T10:15:35.545Z,26.60
2017-11-09T10:18:02.385Z,29.00
2017-11-09T10:20:29.191Z,29.97
2017-11-09T10:22:56.043Z,27.07
2017-11-09T10:25:22.849Z,31.43
2017-11-09T10:27:49.695Z,27.20
2017-11-09T10:30:16.522Z,26.70
2017-11-09T10:32:43.345Z,28.73
2017-11-09T10:35:10.172Z,28.57
2017-11-09T10:37:37.031Z,28.80
2017-11-09T10:40:03.848Z,27.50
2017-11-09T10:42:30.687Z,26.87
2017-11-09T10:44:57.526Z,26.50
2017-11-09T10:47:24.319Z,28.10
2017-11-09T10:49:51.144Z,28.87
2017-11-09T10:52:18.027Z,26.77
2017-11-09T10:54:44.860Z,25.17
2017-11-09T10:57:11.720Z,28.57
2017-11-09T10:59:38.624Z,24.00
2017-11-09T11:02:05.469Z,29.40
2017-11-09T11:04:32.339Z,28.57
2017-11-09T11:06:59.239Z,25.20
2017-11-09T11:09:26.305Z,25.10
2017-11-09T11:11:53.096Z,31.53
2017-11-09T11:14:19.946Z,27.73
2017-11-09T11:16:46.809Z,32.83
2017-11-09T11:19:13.633Z,28.47
2017-11-09T11:21:40.494Z,28.97
2017-11-09T11:24:08.260Z,27.70
2017-11-09T11:26:35.129Z,28.20
2017-11-09T11:29:01.974Z,31.07
2017-11-09T11:31:28.771Z,25.27
2017-11-09T11:33:55.580Z,29.00
2017-11-09T11:36:22.514Z,28.97
2017-11-09T11:38:49.318Z,28.80
2017-11-09T11:41:16.101Z,27.30
2017-11-09T11:43:42.979Z,27.87
2017-11-09T11:46:12.732Z,27.87
2017-11-09T11:48:39.506Z,28.50
2017-11-09T11:51:06.408Z,24.77
2017-11-09T11:53:33.191Z,27.33
2017-11-09T11:56:00.013Z,25.70
2017-11-09T11:58:26.865Z,28.37
2017-11-09T12:00:53.782Z,27.70
2017-11-09T12:03:20.653Z,24.33
2017-11-09T12:05:47.520Z,24.43
2017-11-09T12:08:17.201Z,30.10
2017-11-09T12:10:44.049Z,27.67
2017-11-09T12:13:10.893Z,29.47
2017-11-09T12:15:37.913Z,27.73
2017-11-09T12:18:04.757Z,29.60
2017-11-09T12:20:31.645Z,27.50
2017-11-09T12:22:58.465Z,27.53
2017-11-09T12:25:25.297Z,30.97
2017-11-09T12:27:52.176Z,27.93
2017-11-09T12:30:19.250Z,29.67
2017-11-09T12:32:46.053Z,20.60
2017-11-09T12:35:12.890Z,27.60
2017-11-09T12:37:39.754Z,23.60
2017-11-09T12:40:06.582Z,28.17
2017-11-09T12:42:33.404Z,28.37
2017-11-09T12:45:00.271Z,28.57
2017-11-09T12:47:27.102Z,31.40
2017-11-09T12:49:53.973Z,26.03
2017-11-09T12:52:20.763Z,24.60
2017-11-09T12:54:48.140Z,25.13
2017-11-09T12:57:15.008Z,24.27
2017-11-09T12:59:41.824Z,25.17
2017-11-09T13:02:08.693Z,26.73
2017-11-09T13:04:35.557Z,23.27
2017-11-09T13:07:02.734Z,26.65
2017-11-09T13:09:29.547Z,27.13
2017-11-09T13:11:56.422Z,25.87
2017-11-09T13:14:23.339Z,27.20
2017-11-09T13:16:50.629Z,27.33
2017-11-09T13:19:38.011Z,25.53
2017-11-09T13:22:04.947Z,23.37
2017-11-09T13:24:31.840Z,27.67
2017-11-09T13:26:58.758Z,28.33
2017-11-09T13:29:25.858Z,29.07
2017-11-09T13:31:52.718Z,23.40
2017-11-09T13:34:24.342Z,27.07
2017-11-09T13:36:51.188Z,28.30
2017-11-09T13:39:18.010Z,27.23
2017-11-09T13:41:44.861Z,28.60
2017-11-09T13:44:11.703Z,28.03
2017-11-09T13:46:38.598Z,28.70
2017-11-09T13:49:05.463Z,27.93
2017-11-09T13:51:32.278Z,25.63
2017-11-09T13:53:59.083Z,26.80
2017-11-09T13:56:25.927Z,26.13
2017-11-09T13:58:52.770Z,27.40
2017-11-09T14:01:19.575Z,25.83
2017-11-09T14:03:46.427Z,25.70
2017-11-09T14:06:13.209Z,26.00
2017-11-09T14:08:40.039Z,29.10
2017-11-09T14:11:07.700Z,28.70
2017-11-09T14:13:34.501Z,26.20
2017-11-09T14:16:01.301Z,26.37
2017-11-09T14:18:28.112Z,24.70
2017-11-09T14:20:54.926Z,27.77
2017-11-09T14:23:21.730Z,28.80
2017-11-09T14:25:48.536Z,24.40
2017-11-09T14:28:15.354Z,26.60
2017-11-09T14:30:42.138Z,25.00
2017-11-09T14:33:08.943Z,26.10
2017-11-09T14:35:35.730Z,28.80
2017-11-09T14:38:02.574Z,25.90
2017-11-09T14:40:29.444Z,25.93
2017-11-09T14:42:56.284Z,26.70
2017-11-09T14:45:23.102Z,38.40
2017-11-09T14:47:50.001Z,26.10
2017-11-09T14:50:16.846Z,28.30
2017-11-09T14:52:43.633Z,22.10
2017-11-09T14:55:10.446Z,24.47
2017-11-09T14:57:37.224Z,25.97
2017-11-09T15:00:04.071Z,25.30
2017-11-09T15:02:30.925Z,23.93
2017-11-09T15:04:58.425Z,24.87
2017-11-09T15:07:25.213Z,23.50
2017-11-09T15:09:52.116Z,19.67
2017-11-09T15:12:18.977Z,25.20
2017-11-09T15:14:45.817Z,23.60
2017-11-09T15:17:12.686Z,26.20
2017-11-09T15:19:39.572Z,21.40
2017-11-09T15:22:06.410Z,25.37
2017-11-09T15:24:33.283Z,25.73
2017-11-09T15:27:00.389Z,25.13
2017-11-09T15:29:27.192Z,25.50
2017-11-09T15:31:54.005Z,26.00
2017-11-09T15:34:21.680Z,26.70
2017-11-09T15:36:48.497Z,26.70
2017-11-09T15:39:15.377Z,25.40
2017-11-09T15:41:42.232Z,26.37
2017-11-09T15:44:09.045Z,17.97
2017-11-09T15:46:35.875Z,20.27
2017-11-09T15:49:02.687Z,27.27
2017-11-09T15:51:29.457Z,25.63
2017-11-09T15:53:56.324Z,26.67
2017-11-09T15:56:23.169Z,19.93
2017-11-09T15:58:50.016Z,27.60
2017-11-09T16:01:16.857Z,25.87
2017-11-09T16:03:43.681Z,21.73
2017-11-09T16:06:10.506Z,24.80
2017-11-09T16:08:37.337Z,24.40
2017-11-09T16:11:04.213Z,26.93
2017-11-09T16:13:31.079Z,27.23
2017-11-09T16:15:57.956Z,24.83
2017-11-09T16:18:24.739Z,27.20
2017-11-09T16:20:51.610Z,26.83
2017-11-09T16:23:18.495Z,27.53
2017-11-09T16:25:45.624Z,24.87
2017-11-09T16:28:12.428Z,22.27
2017-11-09T16:30:39.328Z,26.10
2017-11-09T16:33:06.151Z,23.03
2017-11-09T16:35:32.956Z,28.00
2017-11-09T16:37:59.784Z,20.80
2017-11-09T16:40:26.600Z,23.47
2017-11-09T16:42:53.403Z,23.97
2017-11-09T16:45:21.270Z,23.70
2017-11-09T16:47:48.092Z,23.63
2017-11-09T16:50:14.881Z,25.77
2017-11-09T16:52:41.766Z,24.83
2017-11-09T16:55:08.615Z,22.30
2017-11-09T16:57:36.169Z,19.77
2017-11-09T17:00:03.060Z,19.43
2017-11-09T17:02:30.112Z,22.00
2017-11-09T17:04:56.970Z,22.73
2017-11-09T17:07:24.689Z,23.17
2017-11-09T17:09:51.508Z,16.23
2017-11-09T17:12:18.317Z,23.67
2017-11-09T17:14:55.115Z,22.93
2017-11-09T17:17:21.893Z,23.23
2017-11-09T17:19:48.751Z,19.33
2017-11-09T17:22:15.598Z,23.07
2017-11-09T17:24:42.443Z,23.03
2017-11-09T17:27:09.309Z,21.03
2017-11-09T17:29:36.142Z,21.87
2017-11-09T17:32:02.939Z,22.10
2017-11-09T17:34:29.733Z,27.10
2017-11-09T17:36:56.598Z,23.10
2017-11-09T17:39:24.524Z,24.93
2017-11-09T17:41:56.973Z,26.63
2017-11-09T17:44:23.788Z,23.83
2017-11-09T17:46:50.628Z,24.73
2017-11-09T17:49:17.463Z,24.57
2017-11-09T17:51:44.256Z,20.37
2017-11-09T17:54:11.026Z,21.17
2017-11-09T17:56:37.864Z,25.60
2017-11-09T17:59:08.650Z,26.10
2017-11-09T18:01:35.474Z,27.37
2017-11-09T18:04:03.071Z,26.10
2017-11-09T18:06:29.908Z,26.03
2017-11-09T18:08:56.950Z,23.93
2017-11-09T18:11:23.789Z,25.27
2017-11-09T18:13:50.609Z,23.90
2017-11-09T18:16:17.426Z,26.50
2017-11-09T18:18:44.280Z,23.50
2017-11-09T18:21:12.246Z,23.63
2017-11-09T18:23:40.077Z,21.53
2017-11-09T18:26:06.916Z,18.20
2017-11-09T18:28:33.759Z,24.07
2017-11-09T18:31:01.416Z,25.27
2017-11-09T18:33:28.275Z,28.17
2017-11-09T18:35:55.127Z,20.70
2017-11-09T18:38:21.915Z,24.70
2017-11-09T18:40:48.897Z,24.30
2017-11-09T18:43:15.713Z,23.30
2017-11-09T18:45:42.584Z,26.73
2017-11-09T18:48:09.489Z,24.90
2017-11-09T18:50:36.380Z,23.27
2017-11-09T18:53:03.271Z,23.90
2017-11-09T18:55:30.161Z,23.37
2017-11-09T18:57:57.102Z,21.57
2017-11-09T19:00:24.432Z,4.70
2017-11-09T19:02:51.344Z,24.17
2017-11-09T19:05:18.450Z,24.80
2017-11-09T19:07:45.297Z,24.20
2017-11-09T19:10:12.565Z,24.47
2017-11-09T19:12:39.419Z,21.03
2017-11-09T19:15:06.269Z,22.20
2017-11-09T19:17:35.965Z,21.70
2017-11-09T19:20:02.790Z,25.00
2017-11-09T19:22:29.593Z,20.50
2017-11-09T19:24:56.469Z,18.67
2017-11-09T19:27:23.332Z,20.30
2017-11-09T19:29:50.153Z,24.27
2017-11-09T19:32:17.027Z,24.90
2017-11-09T19:34:43.848Z,23.40
2017-11-09T19:37:10.647Z,25.73
2017-11-09T19:39:37.530Z,20.87
2017-11-09T19:42:04.380Z,22.30
2017-11-09T19:44:31.184Z,24.50
2017-11-09T19:46:58.060Z,23.33
2017-11-09T19:49:24.899Z,24.50
2017-11-09T19:51:51.746Z,20.90
2017-11-09T19:54:18.619Z,20.03
2017-11-09T19:56:45.442Z,25.80
2017-11-09T19:59:12.317Z,22.60
2017-11-09T20:01:39.188Z,22.17
2017-11-09T20:04:06.051Z,22.33
2017-11-09T20:06:32.928Z,22.60
2017-11-09T20:08:59.803Z,21.40
2017-11-09T20:11:26.889Z,20.00
2017-11-09T20:13:53.702Z,21.80
2017-11-09T20:16:20.526Z,18.23
2017-11-09T20:18:47.619Z,21.03
2017-11-09T20:21:14.457Z,22.13
2017-11-09T20:23:41.343Z,22.83
2017-11-09T20:26:08.234Z,24.27
2017-11-09T20:28:35.956Z,24.30
2017-11-09T20:31:02.813Z,19.53
2017-11-09T20:33:29.656Z,23.63
2017-11-09T20:35:56.454Z,19.97
2017-11-09T20:38:23.374Z,21.97
2017-11-09T20:40:50.487Z,20.80
2017-11-09T20:43:17.308Z,20.80
2017-11-09T20:45:44.198Z,19.60
2017-11-09T20:48:10.982Z,20.93
2017-11-09T20:50:38.001Z,22.10
2017-11-09T20:53:05.320Z,18.30
2017-11-09T20:55:32.098Z,20.50
2017-11-09T20:57:59.171Z,20.97
2017-11-09T21:00:26.104Z,22.60
2017-11-09T21:02:52.895Z,19.43
2017-11-09T21:05:19.704Z,22.60
2017-11-09T21:07:46.536Z,21.80
2017-11-09T21:10:13.341Z,20.70
2017-11-09T21:12:40.134Z,21.70
2017-11-09T21:15:06.961Z,21.87
2017-11-09T21:17:33.811Z,20.10
2017-11-09T21:20:00.654Z,21.67
2017-11-09T21:22:27.500Z,18.67
2017-11-09T21:24:54.336Z,21.03
2017-11-09T21:27:21.168Z,19.87
2017-11-09T21:29:48.028Z,19.60
2017-11-09T21:32:14.822Z,21.10
2017-11-09T21:34:41.604Z,18.50
2017-11-09T21:37:08.458Z,16.77
2017-11-09T21:39:35.243Z,18.60
2017-11-09T21:42:02.024Z,20.73
2017-11-09T21:44:28.877Z,21.43
2017-11-09T21:46:55.688Z,19.63
2017-11-09T21:49:22.483Z,20.90
2017-11-09T21:51:49.341Z,21.47
2017-11-09T21:54:16.174Z,19.30
2017-11-09T21:56:42.987Z,17.37
2017-11-09T21:59:09.835Z,20.07
2017-11-09T22:01:36.652Z,17.83
2017-11-09T22:04:03.518Z,21.83
2017-11-09T22:06:30.328Z,17.23
2017-11-09T22:08:57.388Z,18.10
2017-11-09T22:11:24.170Z,17.93
2017-11-09T22:13:51.004Z,16.90
2017-11-09T22:16:17.782Z,19.17
2017-11-09T22:18:44.577Z,15.97
2017-11-09T22:21:11.428Z,15.33
2017-11-09T22:23:38.215Z,16.60
2017-11-09T22:26:04.985Z,16.00
2017-11-09T22:28:31.805Z,17.50
2017-11-09T22:30:58.670Z,14.87
2017-11-09T22:33:25.514Z,15.20
2017-11-09T22:35:52.405Z,18.43
2017-11-09T22:38:19.229Z,17.63
2017-11-09T22:40:46.044Z,19.83
2017-11-09T22:43:12.894Z,19.57
2017-11-09T22:45:39.752Z,19.17
2017-11-09T22:48:06.529Z,18.83
2017-11-09T22:50:33.392Z,17.60
2017-11-09T22:53:00.184Z,20.17
2017-11-09T22:55:26.971Z,18.30
2017-11-09T22:57:53.828Z,17.23
2017-11-09T23:00:20.610Z,17.53
2017-11-09T23:02:47.459Z,17.20
2017-11-09T23:05:14.308Z,15.20
2017-11-09T23:07:41.089Z,15.80
2017-11-09T23:10:07.951Z,17.50
